Farmdale, Ohio
Current Conditions -  °F | °C
As of 4:20 AM on Thursday 23 Oct 2014 (Local Time) from KYNG Reporting Station
Broken Clouds Broken Clouds  
Wind Chill: 38°   Ceiling: 1800
Heat Index: 42°   Visibility: 8mi
Dew Point: 41°   Wind: 7mph
Humidity: 96%   Direction: 330°NNW
Pressure: 30.16"   Gusts: NA
Location:  41.43°N, 80.66°W
Report Text: KYNG 230820Z 33006KT 8SM BKN018 06/05 A3016 RMK AO2 T00560050
Loading
Personal Weather Stations






























Interactive Weather Map
Tropical Storm Tracking
New forecast layout! Learn more

10-Day Weather Forecast

Advertisements
Track Severe Weather on mobile